Sylvania, OH

6:44 AM EDT on October 24, 2014 (GMT -0400)
APRSWXNET Sylvania OH US | Change Station
CLOSE
Current Station
Personal Weather Station
Location: Sylvania, OH
Elevation: 669 ft
Nearby Weather Stations

Elev 669 ft 41.72 °N, 83.73 °W | Updated 31 minutes ago

Clear
Clear
36.0 °F
Feels Like 36.0 °F
N
0.0
Wind Variable Wind from SSW
Gusts 0.0 mph

Today
High -- | Low -- °F
--% Chance of Precip.
Yesterday
High -- | Low -- °F
Precip. -- in
7:57 AM 6:40 PM
New Moon, 0% visible
Pressure 30.10 in
Visibility 3.0 miles
Clouds Clear
Dew Point 34.0 °F
Humidity 94%
Rainfall 0.00 in
Snow Depth Not available.
UV 0 out of 12
Pollen .40 out of 12
Air Quality Not available.
Flu Activity Sporadic
METAR KDUH 241035Z AUTO 00000KT 3SM BR CLR 02/01 A3010 RMK AO2

More Conditions Fewer Conditions

Pressure 30.10 in
Visibility 3.0 miles
Clouds Clear
Dew Point 34.0 °F
Humidity 94%
Rainfall 0.00 in
Snow Depth Not available.
UV 0 out of 12
Pollen .40 out of 12
Air Quality Not available.
Flu Activity Sporadic
METAR KDUH 241035Z AUTO 00000KT 3SM BR CLR 02/01 A3010 RMK AO2

More Conditions Fewer Conditions

10-Day Weather Forecast

Almanac

Astronomy

Oct. 24, 2014 Rise Set
Actual Time 7:57 AM EDT 6:40 PM EDT
Civil Twilight 7:29 AM EDT 7:08 PM EDT
Nautical Twilight 6:56 AM EDT 7:40 PM EDT
Astronomical Twilight 6:24 AM EDT 8:13 PM EDT
Moon 8:35 AM EDT 7:18 PM EDT
Length of Visible Light 11h 39m
Length of Day
10h 42m
Tomorrow will be 2m 36s shorter.
New Moon, 0% of the Moon is Illuminated
Today
New Moon
Oct 30
First Quarter
Nov 6
Full
Nov 14
Last Quarter
Nov 22
New

Today's Extremes

State Highs State Lows

Community

WunderPhotos

Upload Photos

1,764,516 photos uploaded!

WunderBlogs® & News

Nearby

Snow Depth

Station Depth Elevation
No new snow has been reported.

Earthquake Activity

City Distance Mag. Time & Date
No recent earthquake activity has been reported nearby.
Minimum magnitude displayed is 2.5.

Coastal Water Temperatures

Place Temperature
Marblehead, OH 52.0 °F

Nearby Weather Stations